Time;durP1;ratioP1;P1;durP2;ratioP2;P2;SDS_P1;SDS_P2;PMS_P1;PMS_P2;Temp;Humidity;BMP_temperature;BMP_pressure;BME280_temperature;BME280_humidity;BME280_pressure;Samples;Min_cycle;Max_cycle;Signal;HPM_P1;HPM_P2
2023/07/11 00:00:01;;;;;;;1.20;1.20;;;;;;;23.35;68.63;95807.84;4341980;32;20220;-59
2023/07/11 00:02:26;;;;;;;1.43;1.33;;;;;;;23.37;68.14;95805.56;4335483;32;20185;-59
2023/07/11 00:04:52;;;;;;;1.60;1.57;;;;;;;23.33;68.71;95806.63;4351287;32;20286;-60
2023/07/11 00:07:17;;;;;;;1.40;1.37;;;;;;;23.30;68.66;95800.78;4344034;32;20173;-59
2023/07/11 00:09:47;;;;;;;2.00;1.90;;;;;;;23.29;68.91;95804.66;4354949;32;20182;-59
2023/07/11 00:12:12;;;;;;;2.00;1.77;;;;;;;23.24;69.14;95804.97;4341245;32;20229;-59
2023/07/11 00:14:37;;;;;;;1.50;1.50;;;;;;;23.26;69.42;95808.09;4341935;32;20252;-59
2023/07/11 00:17:05;;;;;;;1.67;1.67;;;;;;;23.26;68.77;95810.81;4352209;32;20188;-59
2023/07/11 00:19:44;;;;;;;1.03;1.03;;;;;;;23.35;68.69;95805.12;4341027;32;20185;-59
2023/07/11 00:22:10;;;;;;;1.43;1.43;;;;;;;23.40;68.83;95809.47;4355550;32;20181;-59
2023/07/11 00:24:35;;;;;;;2.57;2.37;;;;;;;23.29;68.88;95810.06;4337821;32;20236;-59
2023/07/11 00:27:00;;;;;;;2.40;2.20;;;;;;;23.28;68.61;95808.50;4349535;32;20255;-59
2023/07/11 00:29:26;;;;;;;1.53;1.53;;;;;;;23.26;68.95;95810.03;4332318;32;20248;-59
2023/07/11 00:31:51;;;;;;;1.97;1.87;;;;;;;23.18;69.57;95805.62;4332012;32;20188;-59
2023/07/11 00:34:16;;;;;;;1.83;1.70;;;;;;;23.16;69.51;95808.69;4333092;32;20262;-59
2023/07/11 00:36:42;;;;;;;1.40;1.40;;;;;;;23.15;69.41;95815.25;4344575;32;20185;-59
2023/07/11 00:39:07;;;;;;;2.13;2.07;;;;;;;23.23;69.26;95808.81;4329703;32;20245;-59
2023/07/11 00:41:33;;;;;;;1.43;1.43;;;;;;;23.13;69.55;95800.50;4331771;32;20235;-59
2023/07/11 00:43:58;;;;;;;3.10;1.80;;;;;;;23.15;70.34;95804.44;4332232;32;20254;-59
2023/07/11 00:46:24;;;;;;;1.50;1.43;;;;;;;23.15;69.74;95809.06;4345281;32;20181;-59
2023/07/11 00:49:00;;;;;;;2.20;2.10;;;;;;;23.25;70.57;95801.13;4330562;33;20215;-59
2023/07/11 00:51:33;;;;;;;2.17;2.07;;;;;;;23.16;69.71;95800.56;4345940;32;20185;-59
2023/07/11 00:53:59;;;;;;;1.73;1.63;;;;;;;23.17;69.57;95790.53;4345409;32;20260;-59
2023/07/11 00:56:30;;;;;;;1.87;1.80;;;;;;;23.14;69.94;95793.97;4343868;32;20208;-59
2023/07/11 00:58:57;;;;;;;1.47;1.47;;;;;;;23.19;70.05;95791.75;4331870;32;20260;-59
2023/07/11 01:01:23;;;;;;;1.43;1.33;;;;;;;23.19;69.46;95789.03;4342749;32;20421;-59
2023/07/11 01:03:51;;;;;;;1.50;1.50;;;;;;;23.10;70.51;95791.19;4325834;32;20190;-60
2023/07/11 01:06:20;;;;;;;1.20;1.20;;;;;;;23.07;69.87;95781.06;4333814;33;20194;-59
2023/07/11 01:08:48;;;;;;;2.70;2.17;;;;;;;23.04;69.82;95781.03;4339407;32;20230;-59
2023/07/11 01:11:14;;;;;;;1.37;1.37;;;;;;;23.04;70.26;95783.75;4346017;32;20273;-59
2023/07/11 01:13:40;;;;;;;1.37;1.27;;;;;;;23.06;69.99;95781.47;4331327;32;20181;-59
2023/07/11 01:16:05;;;;;;;1.43;1.43;;;;;;;23.08;70.00;95788.06;4331712;33;20255;-59
2023/07/11 01:18:31;;;;;;;1.47;1.37;;;;;;;22.97;70.08;95781.69;4345437;32;20256;-59
2023/07/11 01:20:57;;;;;;;1.43;1.43;;;;;;;22.97;70.35;95776.28;4329380;32;20181;-59
2023/07/11 01:23:23;;;;;;;1.97;1.83;;;;;;;23.04;70.25;95767.50;4328044;32;20221;-59
2023/07/11 01:25:49;;;;;;;2.07;1.97;;;;;;;22.99;70.42;95774.00;4343306;32;20239;-59
2023/07/11 01:28:14;;;;;;;1.00;1.00;;;;;;;22.86;70.66;95772.63;4345882;32;20193;-59
2023/07/11 01:30:40;;;;;;;1.67;1.67;;;;;;;22.88;70.42;95767.62;4331549;32;20227;-59
2023/07/11 01:33:05;;;;;;;2.03;1.93;;;;;;;22.96;70.50;95774.72;4346302;32;20211;-59
2023/07/11 01:35:31;;;;;;;1.57;1.47;;;;;;;22.97;70.16;95768.16;4332521;32;20189;-59
2023/07/11 01:37:56;;;;;;;1.83;1.73;;;;;;;23.01;70.19;95766.31;4332459;32;20208;-59
2023/07/11 01:40:22;;;;;;;1.67;1.57;;;;;;;22.84;70.19;95764.09;4331567;32;20256;-59
2023/07/11 01:42:48;;;;;;;2.30;2.20;;;;;;;22.76;70.65;95759.66;4348554;32;20189;-59
2023/07/11 01:45:14;;;;;;;1.20;1.20;;;;;;;22.82;71.07;95763.66;4345449;32;20288;-59
2023/07/11 01:47:40;;;;;;;1.10;1.10;;;;;;;22.73;70.85;95760.38;4331876;32;20189;-59
2023/07/11 01:50:07;;;;;;;1.43;1.40;;;;;;;22.82;71.42;95752.84;4332268;32;20189;-59
2023/07/11 01:52:32;;;;;;;1.00;1.00;;;;;;;22.88;71.37;95746.75;4345137;32;20200;-59
2023/07/11 01:54:57;;;;;;;6.60;2.20;;;;;;;22.85;70.97;95746.72;4332254;32;20253;-59
2023/07/11 01:57:23;;;;;;;1.17;1.17;;;;;;;22.73;71.16;95739.50;4342661;32;20232;-59
2023/07/11 01:59:49;;;;;;;0.97;0.97;;;;;;;22.62;71.51;95744.75;4347445;32;20208;-60
2023/07/11 02:02:15;;;;;;;1.03;1.03;;;;;;;22.74;71.78;95737.59;4344441;32;20261;-59
2023/07/11 02:04:40;;;;;;;1.23;1.13;;;;;;;22.73;71.17;95739.50;4342185;32;20204;-59
2023/07/11 02:07:06;;;;;;;4.00;2.37;;;;;;;22.65;71.15;95742.47;4333565;32;20204;-59
2023/07/11 02:09:32;;;;;;;0.73;0.73;;;;;;;22.73;71.68;95738.72;4347160;32;20207;-59
2023/07/11 02:11:58;;;;;;;1.53;1.53;;;;;;;22.57;71.75;95736.94;4334514;32;20182;-59
2023/07/11 02:14:23;;;;;;;1.70;1.60;;;;;;;22.56;71.62;95746.19;4332920;32;20231;-59
2023/07/11 02:16:51;;;;;;;4.83;1.47;;;;;;;22.70;71.85;95737.53;4347428;32;20185;-60
2023/07/11 02:19:20;;;;;;;1.70;1.63;;;;;;;22.56;71.98;95734.59;4335559;32;20188;-59
2023/07/11 02:21:46;;;;;;;3.40;1.83;;;;;;;22.53;72.18;95732.59;4358343;32;20208;-59
2023/07/11 02:24:13;;;;;;;1.20;1.20;;;;;;;22.50;72.30;95730.59;4347672;32;20217;-59
2023/07/11 02:26:39;;;;;;;1.70;1.60;;;;;;;22.57;72.19;95731.53;4332858;32;20311;-59
2023/07/11 02:29:05;;;;;;;1.90;1.80;;;;;;;22.60;72.40;95727.31;4327344;32;20197;-59
2023/07/11 02:31:32;;;;;;;1.63;1.60;;;;;;;22.54;72.23;95726.81;4333730;32;20263;-59
2023/07/11 02:33:58;;;;;;;2.50;2.07;;;;;;;22.54;72.31;95721.41;4335734;32;20208;-59
2023/07/11 02:36:23;;;;;;;1.50;1.50;;;;;;;22.62;72.50;95725.81;4332579;32;20225;-59
2023/07/11 02:38:49;;;;;;;2.23;2.10;;;;;;;22.60;72.42;95722.69;4342235;32;20256;-60
2023/07/11 02:41:15;;;;;;;1.63;1.53;;;;;;;22.57;72.42;95712.59;4345234;32;20219;-59
2023/07/11 02:43:40;;;;;;;1.07;0.93;;;;;;;22.59;72.25;95712.22;4333308;32;20185;-59
2023/07/11 02:46:05;;;;;;;1.40;1.30;;;;;;;22.60;72.50;95714.56;4347001;32;20235;-59
2023/07/11 02:48:31;;;;;;;1.37;1.27;;;;;;;22.61;72.77;95712.66;4346834;32;20211;-59
2023/07/11 02:50:56;;;;;;;1.87;1.80;;;;;;;22.50;72.42;95715.16;4345481;32;20239;-59
2023/07/11 02:53:21;;;;;;;1.30;1.30;;;;;;;22.34;72.95;95719.91;4344802;32;20189;-59
2023/07/11 02:55:50;;;;;;;1.50;1.47;;;;;;;22.25;73.64;95705.81;4335290;32;20216;-59
2023/07/11 02:58:15;;;;;;;1.20;1.20;;;;;;;22.22;73.68;95709.25;4345469;32;20192;-58
2023/07/11 03:00:47;;;;;;;0.97;0.97;;;;;;;22.23;74.04;95702.72;4346991;32;20193;-59
2023/07/11 03:03:12;;;;;;;1.27;1.27;;;;;;;22.24;73.77;95699.63;4342509;32;20215;-59
2023/07/11 03:05:42;;;;;;;1.30;1.30;;;;;;;22.21;73.70;95700.38;4346034;32;21701;-59
2023/07/11 03:08:08;;;;;;;1.13;1.13;;;;;;;22.14;74.36;95697.53;4331787;32;20285;-58
2023/07/11 03:10:33;;;;;;;1.63;1.57;;;;;;;22.34;74.01;95695.56;4345894;32;20229;-59
2023/07/11 03:12:58;;;;;;;1.33;1.33;;;;;;;22.37;73.33;95694.84;4331991;32;20193;-59
2023/07/11 03:15:24;;;;;;;2.00;1.90;;;;;;;22.33;73.55;95696.69;4330106;32;20228;-59
2023/07/11 03:17:49;;;;;;;0.93;0.93;;;;;;;22.30;73.85;95689.31;4344722;32;20284;-58
2023/07/11 03:20:14;;;;;;;1.37;1.37;;;;;;;22.20;74.24;95689.91;4334870;32;20181;-59
2023/07/11 03:22:39;;;;;;;2.00;1.23;;;;;;;22.20;74.37;95684.50;4333028;32;20185;-59
2023/07/11 03:25:05;;;;;;;1.23;1.23;;;;;;;22.26;74.25;95683.81;4347216;32;20202;-59
2023/07/11 03:27:30;;;;;;;1.70;1.70;;;;;;;22.21;74.22;95683.38;4347068;32;20177;-59
2023/07/11 03:29:56;;;;;;;1.40;1.40;;;;;;;22.31;74.27;95685.47;4346168;32;20224;-58
2023/07/11 03:32:21;;;;;;;8.50;2.67;;;;;;;22.31;74.01;95680.06;4346548;32;20190;-59
2023/07/11 03:34:46;;;;;;;1.00;1.00;;;;;;;22.28;73.99;95676.16;4334808;32;20193;-59
2023/07/11 03:37:12;;;;;;;1.33;1.33;;;;;;;22.36;73.86;95668.16;4346283;32;20188;-59
2023/07/11 03:39:37;;;;;;;1.43;1.43;;;;;;;22.38;73.87;95666.66;4333095;32;20181;-59
2023/07/11 03:42:03;;;;;;;1.33;1.33;;;;;;;22.36;73.95;95668.94;4332454;32;20239;-59
2023/07/11 03:44:28;;;;;;;1.53;1.53;;;;;;;22.37;73.95;95667.81;4329052;32;20204;-59
2023/07/11 03:46:53;;;;;;;0.97;0.97;;;;;;;22.33;74.15;95666.97;4346020;32;20200;-59
2023/07/11 03:49:19;;;;;;;1.10;1.10;;;;;;;22.24;74.61;95664.47;4345828;32;20189;-60
2023/07/11 03:51:44;;;;;;;1.57;1.47;;;;;;;22.04;74.96;95667.56;4332552;32;20185;-59
2023/07/11 03:54:09;;;;;;;1.63;1.63;;;;;;;22.19;74.55;95664.81;4332477;32;20177;-59
2023/07/11 03:56:35;;;;;;;1.43;1.43;;;;;;;22.25;74.54;95666.03;4346135;32;20185;-59
2023/07/11 03:59:00;;;;;;;1.33;1.33;;;;;;;22.27;74.33;95663.75;4334677;32;20189;-59
2023/07/11 04:01:25;;;;;;;1.33;1.33;;;;;;;22.17;74.71;95652.78;4332958;32;20189;-59
2023/07/11 04:03:51;;;;;;;1.07;1.07;;;;;;;22.21;74.47;95650.94;4345933;32;20200;-59
2023/07/11 04:06:16;;;;;;;2.17;2.07;;;;;;;22.23;74.42;95657.53;4333946;32;20252;-59
2023/07/11 04:08:41;;;;;;;1.80;1.77;;;;;;;22.15;74.92;95660.47;4331769;32;20212;-59
2023/07/11 04:11:07;;;;;;;1.30;1.30;;;;;;;22.22;74.49;95655.19;4345617;32;20189;-59
2023/07/11 04:13:32;;;;;;;1.63;1.57;;;;;;;22.21;74.56;95659.81;4346130;32;20173;-59
2023/07/11 04:15:58;;;;;;;2.33;2.17;;;;;;;22.24;74.35;95661.00;4332062;32;20254;-59
2023/07/11 04:18:23;;;;;;;1.57;1.47;;;;;;;22.23;74.46;95659.47;4346010;32;20216;-59
2023/07/11 04:20:48;;;;;;;0.90;0.90;;;;;;;22.28;74.34;95653.72;4333052;32;20217;-60
2023/07/11 04:23:14;;;;;;;1.53;1.53;;;;;;;22.18;74.48;95655.13;4333783;32;20181;-59
2023/07/11 04:25:40;;;;;;;2.07;1.97;;;;;;;21.99;75.18;95648.94;4346157;32;20189;-59
2023/07/11 04:28:06;;;;;;;2.30;2.20;;;;;;;22.24;74.49;95653.66;4343175;32;20189;-59
2023/07/11 04:30:31;;;;;;;3.07;2.87;;;;;;;22.01;75.08;95649.41;4341542;32;20181;-59
2023/07/11 04:32:57;;;;;;;4.53;1.97;;;;;;;22.07;75.00;95653.34;4331748;32;20220;-58
2023/07/11 04:35:23;;;;;;;2.03;1.73;;;;;;;22.10;75.06;95658.03;4329555;32;20243;-59
2023/07/11 04:37:49;;;;;;;1.30;1.30;;;;;;;22.10;75.29;95652.62;4333461;32;20193;-59
2023/07/11 04:40:14;;;;;;;2.00;1.93;;;;;;;22.19;75.32;95656.69;4332486;32;20185;-59
2023/07/11 04:42:39;;;;;;;2.57;2.47;;;;;;;22.09;75.02;95656.47;4332249;32;20193;-59
2023/07/11 04:45:06;;;;;;;2.07;1.97;;;;;;;21.89;75.62;95653.78;4342111;32;20188;-59
2023/07/11 04:47:32;;;;;;;2.03;1.93;;;;;;;22.03;75.13;95652.53;4331926;32;20189;-60
2023/07/11 04:49:57;;;;;;;2.60;1.97;;;;;;;22.05;74.85;95655.63;4332180;32;20182;-59
2023/07/11 04:52:24;;;;;;;1.83;1.77;;;;;;;22.09;74.85;95654.56;4331192;32;20207;-59
2023/07/11 04:54:50;;;;;;;2.40;1.87;;;;;;;22.17;74.63;95655.47;4344837;32;20180;-59
2023/07/11 04:57:15;;;;;;;1.53;1.53;;;;;;;22.09;74.74;95656.47;4333043;32;20178;-59
2023/07/11 04:59:40;;;;;;;5.30;2.17;;;;;;;22.04;74.92;95664.87;4345480;32;20185;-59
2023/07/11 05:02:06;;;;;;;1.70;1.70;;;;;;;22.03;74.75;95657.94;4331883;32;20200;-59
2023/07/11 05:04:31;;;;;;;2.00;1.90;;;;;;;22.04;74.60;95656.78;4347303;32;20189;-59
2023/07/11 05:07:00;;;;;;;2.27;2.17;;;;;;;22.07;74.61;95658.75;4333994;32;20181;-59
2023/07/11 05:09:27;;;;;;;2.63;2.53;;;;;;;21.99;74.97;95657.06;4347999;32;20204;-59
2023/07/11 05:11:52;;;;;;;1.53;1.43;;;;;;;21.99;75.01;95654.34;4334637;32;20235;-59
2023/07/11 05:14:17;;;;;;;1.33;1.33;;;;;;;21.99;74.99;95652.44;4336051;32;20270;-59
2023/07/11 05:16:43;;;;;;;2.23;2.13;;;;;;;22.20;74.19;95646.66;4333647;32;20189;-59
2023/07/11 05:19:08;;;;;;;3.57;1.83;;;;;;;22.34;73.91;95649.59;4348111;32;20245;-59
2023/07/11 05:21:33;;;;;;;1.90;1.80;;;;;;;22.31;75.28;95655.72;4348580;32;20223;-59
2023/07/11 05:24:01;;;;;;;8.43;2.20;;;;;;;22.43;73.73;95650.16;4333148;32;20181;-59
2023/07/11 05:26:26;;;;;;;2.60;2.43;;;;;;;22.55;73.28;95646.47;4333777;32;20178;-59
2023/07/11 05:28:54;;;;;;;2.60;2.50;;;;;;;22.58;74.08;95656.56;4348493;32;20247;-59
2023/07/11 05:31:20;;;;;;;5.03;3.87;;;;;;;22.66;72.96;95652.81;4333488;32;20197;-59
2023/07/11 05:33:45;;;;;;;15.97;4.93;;;;;;;22.73;72.51;95646.75;4335601;32;20182;-59
2023/07/11 05:38:53;;;;;;;2.57;2.37;;;;;;;22.79;72.40;95650.75;4341209;32;20205;-59
2023/07/11 05:41:19;;;;;;;2.33;2.20;;;;;;;22.81;72.99;95653.88;4349493;32;20200;-59
2023/07/11 05:43:45;;;;;;;9.00;4.70;;;;;;;22.92;71.17;95654.81;4348362;32;20189;-59
2023/07/11 05:46:11;;;;;;;2.90;2.70;;;;;;;23.00;70.66;95648.34;4344718;32;20208;-59
2023/07/11 05:48:37;;;;;;;3.30;3.13;;;;;;;23.01;71.16;95657.25;4334236;32;20193;-59
2023/07/11 05:51:11;;;;;;;2.83;2.63;;;;;;;23.09;70.03;95656.97;4333832;32;20221;-59
2023/07/11 05:53:38;;;;;;;2.57;2.47;;;;;;;23.14;69.68;95656.66;4319560;32;20183;-61
2023/07/11 05:56:04;;;;;;;2.27;2.17;;;;;;;23.08;69.71;95655.41;4343817;32;20221;-63
2023/07/11 05:58:30;;;;;;;1.80;1.70;;;;;;;23.11;70.62;95656.63;4346366;32;20204;-62
2023/07/11 06:00:57;;;;;;;2.27;2.07;;;;;;;23.06;71.26;95648.84;4346074;32;20189;-62
2023/07/11 06:03:24;;;;;;;2.00;1.80;;;;;;;23.09;70.28;95651.56;4324923;32;20255;-62
2023/07/11 06:05:50;;;;;;;2.27;1.73;;;;;;;23.10;71.16;95650.41;4333191;32;20241;-61
2023/07/11 06:08:16;;;;;;;4.53;1.93;;;;;;;23.14;69.57;95645.06;4349768;32;20231;-62
2023/07/11 06:10:42;;;;;;;2.87;1.67;;;;;;;23.18;70.14;95646.69;4332119;32;20201;-62
2023/07/11 06:13:09;;;;;;;2.27;2.07;;;;;;;23.21;69.37;95645.16;4338317;32;20189;-63
2023/07/11 06:15:35;;;;;;;2.23;2.13;;;;;;;23.23;70.00;95643.66;4344904;32;20256;-62
2023/07/11 06:18:00;;;;;;;3.20;1.83;;;;;;;23.23;69.02;95638.25;4331655;32;20190;-62
2023/07/11 06:20:25;;;;;;;1.50;1.50;;;;;;;23.29;69.39;95638.69;4333228;32;20186;-62
2023/07/11 06:22:51;;;;;;;1.93;1.83;;;;;;;23.33;69.83;95641.44;4344999;32;20204;-62
2023/07/11 06:25:16;;;;;;;1.53;1.47;;;;;;;23.31;69.53;95644.53;4334881;32;20185;-62
2023/07/11 06:27:41;;;;;;;2.10;2.00;;;;;;;23.18;73.85;95645.91;4346894;32;20190;-62
2023/07/11 06:30:08;;;;;;;2.23;2.13;;;;;;;23.23;71.12;95637.47;4332926;32;20204;-62
2023/07/11 06:32:33;;;;;;;1.87;1.77;;;;;;;23.27;69.55;95641.78;4331955;32;20192;-62
2023/07/11 06:34:58;;;;;;;1.73;1.67;;;;;;;23.23;69.87;95638.25;4346209;32;20260;-62
2023/07/11 06:37:24;;;;;;;1.73;1.63;;;;;;;23.36;64.32;95635.31;4331405;32;20212;-62
2023/07/11 06:39:49;;;;;;;1.50;1.50;;;;;;;23.43;69.77;95640.81;4345308;32;20182;-60
2023/07/11 06:42:15;;;;;;;3.37;1.73;;;;;;;23.45;67.58;95635.81;4343174;32;20181;-62
2023/07/11 06:44:41;;;;;;;2.97;1.73;;;;;;;23.45;68.51;95633.09;4333042;32;20182;-62
2023/07/11 06:47:06;;;;;;;1.40;1.40;;;;;;;23.41;68.07;95640.41;4347112;32;20194;-62
2023/07/11 06:49:32;;;;;;;1.13;1.13;;;;;;;23.51;68.02;95637.03;4338344;32;20200;-62
2023/07/11 06:51:57;;;;;;;1.13;1.13;;;;;;;23.54;68.21;95630.91;4328002;32;20177;-62
2023/07/11 06:54:23;;;;;;;1.70;1.60;;;;;;;23.52;68.93;95636.69;4326401;32;20181;-61
2023/07/11 06:56:48;;;;;;;1.60;1.30;;;;;;;23.59;67.90;95628.66;4329585;32;20227;-62
2023/07/11 06:59:20;;;;;;;2.10;2.00;;;;;;;23.66;67.47;95636.09;4331537;32;20181;-62
2023/07/11 07:01:46;;;;;;;1.70;1.60;;;;;;;23.70;67.16;95628.78;4333535;32;20209;-61
2023/07/11 07:04:13;;;;;;;21.83;2.23;;;;;;;23.77;66.52;95634.28;4345268;32;20269;-62
2023/07/11 07:06:43;;;;;;;1.57;1.47;;;;;;;23.79;66.87;95632.00;4345235;32;20346;-62
2023/07/11 07:09:10;;;;;;;1.97;1.87;;;;;;;24.14;63.05;95633.50;4318779;32;20193;-62
2023/07/11 07:11:35;;;;;;;1.13;1.10;;;;;;;24.13;61.10;95635.44;4332828;32;20190;-62
2023/07/11 07:14:09;;;;;;;0.77;0.77;;;;;;;24.15;63.61;95632.34;4330288;32;20240;-62
2023/07/11 07:16:38;;;;;;;1.37;1.37;;;;;;;24.14;62.17;95625.37;4330814;32;20228;-62
2023/07/11 07:19:05;;;;;;;2.10;2.00;;;;;;;24.19;63.27;95622.31;4326485;32;20189;-62
2023/07/11 07:21:30;;;;;;;2.07;0.97;;;;;;;24.22;63.14;95624.28;4331953;32;20197;-62
2023/07/11 07:23:56;;;;;;;1.70;1.70;;;;;;;24.44;58.69;95625.28;4329911;32;20186;-61
2023/07/11 07:26:21;;;;;;;1.17;1.17;;;;;;;24.48;59.17;95624.19;4328858;32;20190;-62
2023/07/11 07:28:47;;;;;;;0.80;0.80;;;;;;;24.56;60.38;95625.78;4333904;32;20182;-62
2023/07/11 07:31:12;;;;;;;1.27;1.27;;;;;;;24.48;58.98;95615.25;4330599;32;20181;-62
2023/07/11 07:33:38;;;;;;;3.60;3.40;;;;;;;24.52;57.27;95618.78;4329947;32;20200;-62
2023/07/11 07:36:06;;;;;;;2.63;2.53;;;;;;;24.43;59.88;95610.94;4330565;32;20217;-62
2023/07/11 07:38:32;;;;;;;1.20;1.20;;;;;;;24.69;58.48;95617.34;4330971;32;20185;-63
2023/07/11 07:40:59;;;;;;;1.33;1.27;;;;;;;25.46;52.48;95617.06;4333979;32;20196;-61
2023/07/11 07:43:26;;;;;;;1.53;1.53;;;;;;;25.72;51.16;95610.59;4319175;32;20224;-62
2023/07/11 07:45:52;;;;;;;3.03;1.83;;;;;;;25.59;52.12;95612.84;4331924;32;20186;-62
2023/07/11 07:48:18;;;;;;;1.00;1.00;;;;;;;25.68;52.72;95618.75;4331287;32;20260;-62
2023/07/11 07:50:44;;;;;;;1.67;1.57;;;;;;;25.33;55.93;95610.41;4329699;32;20189;-62
2023/07/11 07:53:11;;;;;;;1.20;1.20;;;;;;;25.07;56.57;95605.22;4329863;32;20257;-62
2023/07/11 07:55:36;;;;;;;1.13;1.13;;;;;;;25.57;51.94;95612.44;4324481;32;20182;-62
2023/07/11 07:58:02;;;;;;;1.20;1.20;;;;;;;25.60;53.11;95606.25;4331097;32;20227;-61
2023/07/11 08:00:27;;;;;;;0.90;0.90;;;;;;;25.55;53.64;95606.62;4331611;32;20205;-62
2023/07/11 08:02:53;;;;;;;3.97;1.70;;;;;;;25.95;51.21;95605.63;4331801;32;20186;-62
2023/07/11 08:05:20;;;;;;;1.70;1.60;;;;;;;25.55;53.78;95606.62;4333638;32;20208;-62
2023/07/11 08:07:48;;;;;;;1.27;1.27;;;;;;;25.61;53.59;95598.88;4327822;32;20197;-62
2023/07/11 08:10:15;;;;;;;1.73;1.63;;;;;;;25.77;53.48;95599.34;4344119;32;20207;-62
2023/07/11 08:12:41;;;;;;;1.97;1.87;;;;;;;25.46;55.14;95600.75;4332872;32;20207;-62
2023/07/11 08:15:08;;;;;;;0.87;0.87;;;;;;;26.01;52.14;95598.62;4334704;32;20190;-62
2023/07/11 08:17:33;;;;;;;1.43;1.43;;;;;;;26.04;52.86;95594.34;4334461;32;20193;-62
2023/07/11 08:19:59;;;;;;;1.30;1.30;;;;;;;26.14;53.29;95599.03;4345372;32;20184;-62
2023/07/11 08:22:24;;;;;;;1.73;1.67;;;;;;;25.65;54.63;95584.16;4330088;32;20217;-62
2023/07/11 08:24:49;;;;;;;1.13;1.13;;;;;;;25.10;57.86;95580.81;4339008;32;20195;-61
2023/07/11 08:27:15;;;;;;;1.20;1.20;;;;;;;25.19;58.09;95588.59;4346423;32;20193;-62
2023/07/11 08:29:44;;;;;;;1.40;1.40;;;;;;;25.22;57.74;95583.19;4331964;32;20181;-62
2023/07/11 08:32:11;;;;;;;1.13;1.13;;;;;;;25.47;57.96;95585.22;4331995;32;20256;-62
2023/07/11 08:34:36;;;;;;;2.13;2.03;;;;;;;25.77;56.30;95577.59;4330901;32;20208;-62
2023/07/11 08:37:02;;;;;;;1.67;1.10;;;;;;;25.76;57.67;95570.63;4331354;32;20236;-62
2023/07/11 08:39:27;;;;;;;1.93;1.87;;;;;;;25.55;57.15;95575.97;4331549;32;20184;-62
2023/07/11 08:41:55;;;;;;;1.83;1.73;;;;;;;25.21;58.92;95576.19;4340012;32;20240;-62
2023/07/11 08:44:36;;;;;;;2.30;1.63;;;;;;;25.50;57.79;95573.59;4330879;32;20195;-61
2023/07/11 08:47:24;;;;;;;1.73;1.63;;;;;;;25.81;55.78;95569.44;4331175;32;20185;-62
2023/07/11 08:49:58;;;;;;;3.00;2.80;;;;;;;25.79;56.38;95575.25;4337905;32;20215;-61
2023/07/11 08:52:25;;;;;;;1.33;1.33;;;;;;;25.93;55.35;95571.81;4345594;32;20193;-62
2023/07/11 08:54:59;;;;;;;4.83;1.97;;;;;;;26.29;54.24;95569.91;4331760;32;20181;-61
2023/07/11 08:57:29;;;;;;;1.53;1.47;;;;;;;26.62;53.16;95566.78;4327743;32;20220;-62
2023/07/11 09:00:06;;;;;;;1.73;1.63;;;;;;;27.10;51.90;95574.53;4333394;32;20232;-62
2023/07/11 09:02:47;;;;;;;1.83;1.73;;;;;;;27.20;51.26;95568.28;4326273;32;20192;-62
2023/07/11 09:05:19;;;;;;;7.20;4.90;;;;;;;27.34;50.87;95564.72;4343873;32;20190;-63
2023/07/11 09:07:45;;;;;;;2.33;2.23;;;;;;;27.07;51.84;95558.97;4331618;33;20204;-61
2023/07/11 09:10:35;;;;;;;2.60;2.40;;;;;;;27.23;52.72;95558.50;4344874;32;20181;-62
2023/07/11 09:13:14;;;;;;;2.30;2.17;;;;;;;26.34;54.70;95558.66;4339564;32;20189;-62
2023/07/11 09:16:21;;;;;;;1.73;1.63;;;;;;;25.83;56.73;95558.97;4331620;32;20248;-63
2023/07/11 09:19:06;;;;;;;3.73;2.77;;;;;;;25.77;56.75;95547.72;4313665;32;20252;-63
2023/07/11 09:21:53;;;;;;;2.70;2.20;;;;;;;25.44;58.26;95546.03;4322263;32;20188;-62
2023/07/11 09:24:34;;;;;;;3.07;2.50;;;;;;;26.28;55.48;95549.28;4322103;32;20200;-62
2023/07/11 09:27:20;;;;;;;2.03;1.90;;;;;;;25.82;56.91;95539.16;4331769;32;20174;-62
2023/07/11 09:29:47;;;;;;;19.70;12.87;;;;;;;26.49;55.10;95540.38;4337375;32;20186;-62
2023/07/11 09:32:13;;;;;;;20.60;11.00;;;;;;;26.33;55.45;95538.84;4335126;32;20211;-62
2023/07/11 09:34:43;;;;;;;2.33;2.23;;;;;;;26.60;54.54;95533.75;4342557;32;20186;-63
2023/07/11 09:37:23;;;;;;;3.30;3.10;;;;;;;26.40;55.19;95534.53;4323160;32;20189;-61
2023/07/11 09:40:09;;;;;;;1.73;1.63;;;;;;;26.92;54.17;95527.47;4332366;32;20185;-62
2023/07/11 09:42:42;;;;;;;1.33;1.33;;;;;;;26.99;54.31;95522.81;4335627;32;20217;-62
2023/07/11 09:45:16;;;;;;;3.77;1.73;;;;;;;27.92;50.75;95522.38;4321712;32;20200;-62
2023/07/11 09:47:47;;;;;;;1.30;1.20;;;;;;;27.28;52.41;95520.75;4324463;32;20231;-62
2023/07/11 09:50:27;;;;;;;1.97;1.77;;;;;;;27.58;52.55;95516.75;4335450;32;20182;-62
2023/07/11 09:52:57;;;;;;;1.70;1.70;;;;;;;28.18;49.97;95515.56;4322707;32;20189;-62
2023/07/11 09:55:30;;;;;;;1.40;1.13;;;;;;;27.36;52.35;95516.81;4326901;32;20362;-63
2023/07/11 09:57:56;;;;;;;1.40;1.30;;;;;;;26.45;55.28;95515.09;4328652;32;20219;-62
2023/07/11 10:00:21;;;;;;;1.57;1.47;;;;;;;26.52;54.61;95517.81;4323941;32;20197;-62
2023/07/11 10:02:48;;;;;;;1.37;1.37;;;;;;;26.61;53.49;95510.78;4328022;32;20185;-62
2023/07/11 10:05:17;;;;;;;2.57;2.37;;;;;;;26.31;55.60;95515.91;4333032;32;20173;-62
2023/07/11 10:07:42;;;;;;;3.50;3.20;;;;;;;26.49;55.12;95516.66;4342235;32;20185;-62
2023/07/11 10:10:13;;;;;;;3.07;2.87;;;;;;;26.64;54.40;95510.00;4333645;32;20181;-61
2023/07/11 10:12:42;;;;;;;1.23;1.23;;;;;;;27.38;51.04;95509.03;4327925;32;20185;-63
2023/07/11 10:15:14;;;;;;;2.47;2.27;;;;;;;28.06;49.23;95509.38;4335839;32;20268;-62
2023/07/11 10:17:42;;;;;;;1.03;0.93;;;;;;;28.57;46.78;95504.31;4326136;32;20337;-62
2023/07/11 10:20:20;;;;;;;1.37;1.37;;;;;;;28.51;47.30;95500.47;4328873;32;20208;-63
2023/07/11 10:22:52;;;;;;;1.60;1.50;;;;;;;27.61;50.21;95494.13;4329557;32;20189;-63
2023/07/11 10:25:21;;;;;;;3.30;3.07;;;;;;;28.06;48.49;95498.47;4334089;32;20249;-62
2023/07/11 10:28:17;;;;;;;2.90;2.70;;;;;;;28.78;45.85;95493.16;4338819;32;20186;-62
2023/07/11 10:30:43;;;;;;;2.87;2.67;;;;;;;28.78;45.82;95484.19;4338505;32;20189;-62
2023/07/11 10:33:18;;;;;;;1.43;1.43;;;;;;;29.05;44.33;95477.69;4332009;32;20201;-62
2023/07/11 10:35:50;;;;;;;1.53;1.43;;;;;;;29.28;43.79;95485.19;4326788;32;20177;-62
2023/07/11 10:38:21;;;;;;;1.97;1.90;;;;;;;29.20;44.10;95478.25;4326997;32;20249;-63
2023/07/11 10:40:49;;;;;;;2.00;1.90;;;;;;;29.31;42.68;95480.84;4331256;32;20248;-63
2023/07/11 10:43:27;;;;;;;1.67;1.60;;;;;;;29.31;43.30;95481.63;4330926;32;20185;-63
2023/07/11 10:46:02;;;;;;;2.67;2.47;;;;;;;28.21;46.55;95468.38;4335915;32;20185;-62
2023/07/11 10:48:34;;;;;;;2.13;1.90;;;;;;;27.87;47.72;95463.53;4324045;32;20236;-63
2023/07/11 10:51:07;;;;;;;2.70;1.90;;;;;;;28.11;47.63;95453.63;4329098;32;20189;-62
2023/07/11 10:54:11;;;;;;;1.77;1.67;;;;;;;27.60;48.88;95460.66;4330693;32;20197;-63
2023/07/11 10:56:42;;;;;;;2.53;2.33;;;;;;;27.93;47.81;95450.25;4294205;32;20182;-62
2023/07/11 10:59:13;;;;;;;2.20;1.60;;;;;;;27.90;48.09;95457.28;4325249;32;20189;-62
2023/07/11 11:01:50;;;;;;;1.40;1.40;;;;;;;28.44;44.58;95445.94;4326263;32;20199;-63
2023/07/11 11:04:35;;;;;;;1.77;1.70;;;;;;;29.03;44.12;95444.50;4329075;32;20207;-63
2023/07/11 11:07:11;;;;;;;1.87;1.87;;;;;;;28.54;45.78;95440.34;4334463;32;20196;-62
2023/07/11 11:09:40;;;;;;;9.30;2.03;;;;;;;28.42;46.20;95435.44;4316543;32;20194;-62
2023/07/11 11:12:34;;;;;;;1.77;1.70;;;;;;;28.60;45.62;95430.56;4298018;33;20230;-62
2023/07/11 11:15:36;;;;;;;2.73;2.53;;;;;;;28.64;45.87;95422.31;4310584;33;20243;-62
2023/07/11 11:18:04;;;;;;;1.27;1.27;;;;;;;28.37;47.06;95420.25;4313224;33;20201;-62
2023/07/11 11:20:36;;;;;;;4.50;3.30;;;;;;;28.95;45.68;95420.41;4318274;33;20208;-62
2023/07/11 11:23:21;;;;;;;3.10;2.80;;;;;;;28.52;47.88;95411.91;4318022;33;20189;-62
2023/07/11 11:26:18;;;;;;;2.53;2.33;;;;;;;29.59;42.30;95403.16;4310339;32;20297;-62
2023/07/11 11:29:21;;;;;;;1.73;1.63;;;;;;;29.02;43.94;95403.94;4313197;33;20233;-62
2023/07/11 11:32:09;;;;;;;2.00;1.80;;;;;;;27.77;48.44;95403.66;4318003;33;20199;-62
2023/07/11 11:34:44;;;;;;;1.00;1.00;;;;;;;28.31;45.37;95394.56;4324174;32;20225;-62
2023/07/11 11:37:19;;;;;;;1.23;1.23;;;;;;;28.45;44.37;95385.47;4322907;33;20185;-62
2023/07/11 11:40:02;;;;;;;1.00;1.00;;;;;;;28.39;45.32;95393.34;4325515;33;20201;-63
2023/07/11 11:42:30;;;;;;;1.93;1.83;;;;;;;27.44;48.44;95391.38;4319337;32;20186;-62